createdAt,value
2023-04-19T00:01:44.221Z,102104.97
2023-04-19T00:04:11.627Z,102106.63
2023-04-19T00:06:42.000Z,102106.19
2023-04-19T00:09:09.808Z,102095.25
2023-04-19T00:11:36.904Z,102097.91
2023-04-19T00:14:03.998Z,102095.81
2023-04-19T00:16:31.111Z,102094.56
2023-04-19T00:18:58.206Z,102088.78
2023-04-19T00:21:26.176Z,102080.06
2023-04-19T00:23:54.091Z,102090.72
2023-04-19T00:26:23.510Z,102085.38
2023-04-19T00:28:50.524Z,102088.94
2023-04-19T00:31:17.681Z,102082.34
2023-04-19T00:33:44.710Z,102090.25
2023-04-19T00:36:11.817Z,102096.13
2023-04-19T00:38:38.843Z,102089.34
2023-04-19T00:41:05.994Z,102088.63
2023-04-19T00:43:33.141Z,102099.72
2023-04-19T00:46:00.543Z,102092.84
2023-04-19T00:48:27.752Z,102085.00
2023-04-19T00:50:55.137Z,102083.84
2023-04-19T00:53:22.258Z,102094.28
2023-04-19T00:55:51.356Z,102079.88
2023-04-19T00:58:18.945Z,102085.09
2023-04-19T01:00:46.116Z,102079.88
2023-04-19T01:03:13.551Z,102088.28
2023-04-19T01:05:41.621Z,102085.63
2023-04-19T01:08:08.707Z,102081.50
2023-04-19T01:10:36.032Z,102076.28
2023-04-19T01:13:03.168Z,102080.06
2023-04-19T01:15:31.393Z,102079.03
2023-04-19T01:17:58.569Z,102080.81
2023-04-19T01:20:25.781Z,102079.22
2023-04-19T01:22:52.902Z,102073.88
2023-04-19T01:25:20.145Z,102073.31
2023-04-19T01:27:47.172Z,102067.03
2023-04-19T01:30:14.509Z,102073.78
2023-04-19T01:32:41.583Z,102069.13
2023-04-19T01:35:11.293Z,102068.59
2023-04-19T01:37:38.504Z,102068.44
2023-04-19T01:40:06.521Z,102063.19
2023-04-19T01:42:33.646Z,102064.47
2023-04-19T01:45:00.802Z,102058.38
2023-04-19T01:47:28.027Z,102068.97
2023-04-19T01:49:55.299Z,102058.84
2023-04-19T01:52:22.406Z,102053.78
2023-04-19T01:54:49.458Z,102057.59
2023-04-19T01:57:16.681Z,102054.25
2023-04-19T01:59:43.787Z,102054.06
2023-04-19T02:02:10.963Z,102055.13
2023-04-19T02:04:38.123Z,102052.19
2023-04-19T02:07:05.242Z,102051.78
2023-04-19T02:09:37.009Z,102051.88
2023-04-19T02:12:05.790Z,102046.25
2023-04-19T02:14:32.976Z,102043.94
2023-04-19T02:17:00.030Z,102041.13
2023-04-19T02:19:27.100Z,102041.44
2023-04-19T02:21:57.520Z,102042.38
2023-04-19T02:24:25.305Z,102034.56
2023-04-19T02:26:54.596Z,102027.88
2023-04-19T02:29:21.942Z,102028.13
2023-04-19T02:31:49.064Z,102030.00
2023-04-19T02:34:16.468Z,102025.13
2023-04-19T02:36:43.848Z,102025.06
2023-04-19T02:39:10.903Z,102012.34
2023-04-19T02:41:39.499Z,102023.47
2023-04-19T02:44:06.647Z,102016.31
2023-04-19T02:46:33.796Z,102015.38
2023-04-19T02:49:04.405Z,102007.75
2023-04-19T02:51:31.518Z,102007.44
2023-04-19T02:53:58.554Z,101994.81
2023-04-19T02:56:26.064Z,101996.00
2023-04-19T02:58:54.714Z,101999.66
2023-04-19T03:01:22.023Z,101998.09
2023-04-19T03:03:49.221Z,101998.41
2023-04-19T03:06:16.937Z,101993.38
2023-04-19T03:08:44.095Z,101988.84
2023-04-19T03:11:12.871Z,101986.59
2023-04-19T03:13:40.722Z,101983.41
2023-04-19T03:16:09.158Z,101982.69
2023-04-19T03:18:36.489Z,101977.75
2023-04-19T03:21:09.384Z,101972.78
2023-04-19T03:23:37.628Z,101980.00
2023-04-19T03:26:04.713Z,101972.44
2023-04-19T03:28:31.796Z,101974.44
2023-04-19T03:30:58.793Z,101975.28
2023-04-19T03:33:25.909Z,101970.63
2023-04-19T03:35:52.939Z,101978.06
2023-04-19T03:38:20.032Z,101968.97
2023-04-19T03:40:48.250Z,101972.53
2023-04-19T03:43:15.422Z,101970.53
2023-04-19T03:45:42.514Z,101970.69
2023-04-19T03:48:09.641Z,101964.66
2023-04-19T03:50:36.730Z,101961.84
2023-04-19T03:53:07.328Z,101968.03
2023-04-19T03:55:34.421Z,101963.66
2023-04-19T03:58:01.658Z,101957.34
2023-04-19T04:00:28.725Z,101961.94
2023-04-19T04:02:57.594Z,101960.44
2023-04-19T04:05:28.005Z,101958.09
2023-04-19T04:07:56.312Z,101952.81
2023-04-19T04:10:23.371Z,101953.28
2023-04-19T04:12:50.472Z,101945.34
2023-04-19T04:15:17.690Z,101947.84
2023-04-19T04:17:45.106Z,101948.16
2023-04-19T04:20:13.513Z,101945.84
2023-04-19T04:22:43.283Z,101948.41
2023-04-19T04:25:10.968Z,101949.44
2023-04-19T04:27:39.793Z,101948.91
2023-04-19T04:30:08.046Z,101943.22
2023-04-19T04:32:37.434Z,101936.13
2023-04-19T04:35:07.166Z,101945.25
2023-04-19T04:37:40.431Z,101937.44
2023-04-19T04:40:08.952Z,101931.47
2023-04-19T04:42:39.086Z,101936.47
2023-04-19T04:45:07.295Z,101938.34
2023-04-19T04:47:35.325Z,101932.41
2023-04-19T04:50:04.194Z,101924.78
2023-04-19T04:52:31.360Z,101921.53
2023-04-19T04:54:58.663Z,101926.38
2023-04-19T04:57:28.735Z,101916.75
2023-04-19T04:59:56.397Z,101918.78
2023-04-19T05:02:24.010Z,101916.09
2023-04-19T05:04:51.286Z,101923.50
2023-04-19T05:07:18.414Z,101924.75
2023-04-19T05:09:49.044Z,101917.63
2023-04-19T05:12:16.190Z,101926.44
2023-04-19T05:14:43.282Z,101918.03
2023-04-19T05:17:10.508Z,101910.44
2023-04-19T05:19:40.902Z,101921.34
2023-04-19T05:22:07.946Z,101918.72
2023-04-19T05:24:35.292Z,101909.16
2023-04-19T05:27:05.047Z,101908.56
2023-04-19T05:29:32.516Z,101895.31
2023-04-19T05:31:59.727Z,101900.66
2023-04-19T05:34:26.933Z,101904.88
2023-04-19T05:36:54.167Z,101895.91
2023-04-19T05:39:21.202Z,101894.09
2023-04-19T05:41:48.633Z,101896.56
2023-04-19T05:44:15.920Z,101907.94
2023-04-19T05:46:43.150Z,101903.97
2023-04-19T05:49:10.171Z,101900.00
2023-04-19T05:51:37.248Z,101898.31
2023-04-19T05:54:04.426Z,101901.09
2023-04-19T05:56:31.764Z,101895.56
2023-04-19T05:59:00.963Z,101893.22
2023-04-19T06:01:28.402Z,101891.78
2023-04-19T06:03:55.645Z,101902.91
2023-04-19T06:06:23.843Z,101910.06
2023-04-19T06:08:53.328Z,101900.63
2023-04-19T06:11:31.511Z,101898.09
2023-04-19T06:14:02.167Z,101900.19
2023-04-19T06:16:29.834Z,101888.31
2023-04-19T06:18:57.407Z,101891.88
2023-04-19T06:21:24.532Z,101897.56
2023-04-19T06:23:52.165Z,101894.38
2023-04-19T06:26:19.395Z,101890.97
2023-04-19T06:28:49.349Z,101898.69
2023-04-19T06:31:16.528Z,101896.88
2023-04-19T06:33:43.876Z,101885.94
2023-04-19T06:36:10.944Z,101889.09
2023-04-19T06:38:47.464Z,101888.72
2023-04-19T06:41:14.487Z,101867.75
2023-04-19T06:43:42.776Z,101874.59
2023-04-19T06:46:10.110Z,101872.44
2023-04-19T06:48:38.023Z,101865.53
2023-04-19T06:51:05.299Z,101870.22
2023-04-19T06:53:33.244Z,101860.47
2023-04-19T06:56:04.428Z,101863.31
2023-04-19T06:58:34.513Z,101850.97
2023-04-19T07:01:04.542Z,101852.13
2023-04-19T07:03:33.782Z,101849.47
2023-04-19T07:06:01.353Z,101841.06
2023-04-19T07:08:42.310Z,101839.97
2023-04-19T07:11:15.672Z,101832.06
2023-04-19T07:13:46.622Z,101838.22
2023-04-19T07:16:14.932Z,101822.81
2023-04-19T07:18:42.325Z,101819.41
2023-04-19T07:21:10.307Z,101820.81
2023-04-19T07:24:06.222Z,101814.25
2023-04-19T07:26:45.114Z,101808.63
2023-04-19T07:29:15.233Z,101814.25
2023-04-19T07:31:42.533Z,101804.72
2023-04-19T07:34:09.961Z,101797.53
2023-04-19T07:36:38.014Z,101798.66
2023-04-19T07:39:05.364Z,101799.66
2023-04-19T07:41:33.082Z,101793.50
2023-04-19T07:44:02.870Z,101796.44
2023-04-19T07:46:30.125Z,101787.34
2023-04-19T07:48:57.248Z,101789.03
2023-04-19T07:51:25.114Z,101785.56
2023-04-19T07:53:55.402Z,101787.50
2023-04-19T07:56:23.343Z,101787.31
2023-04-19T07:59:04.218Z,101781.56
2023-04-19T08:01:35.250Z,101789.59
2023-04-19T08:04:06.977Z,101785.19
2023-04-19T08:06:34.535Z,101782.78
2023-04-19T08:09:01.603Z,101771.44
2023-04-19T08:11:28.794Z,101769.41
2023-04-19T08:14:06.805Z,101772.56
2023-04-19T08:17:19.576Z,101779.06
2023-04-19T08:19:31.044Z,101770.69
2023-04-19T08:21:58.099Z,101772.03
2023-04-19T08:24:25.292Z,101768.13
2023-04-19T08:26:57.088Z,101777.03
2023-04-19T08:29:28.711Z,101763.88
2023-04-19T08:31:57.285Z,101768.66
2023-04-19T08:34:24.370Z,101767.13
2023-04-19T08:37:03.238Z,101763.00
2023-04-19T08:39:37.720Z,101755.94
2023-04-19T08:42:21.138Z,101761.03
2023-04-19T08:47:44.974Z,101755.06
2023-04-19T08:50:31.078Z,101740.13
2023-04-19T08:55:33.624Z,101732.34
2023-04-19T08:58:09.662Z,101743.88
2023-04-19T09:00:43.041Z,101725.50
2023-04-19T09:03:11.300Z,101735.94
2023-04-19T09:05:38.885Z,101740.50
2023-04-19T09:08:28.650Z,101724.94
2023-04-19T09:11:02.652Z,101724.59
2023-04-19T09:13:30.364Z,101723.25
2023-04-19T09:16:00.216Z,101717.34
2023-04-19T09:18:33.130Z,101719.31
2023-04-19T09:21:01.637Z,101718.50
2023-04-19T09:23:29.219Z,101714.31
2023-04-19T09:28:36.427Z,101708.03
2023-04-19T09:31:33.210Z,101713.00
2023-04-19T09:34:19.284Z,101701.50
2023-04-19T09:36:54.637Z,101707.75
2023-04-19T09:39:37.859Z,101711.53
2023-04-19T09:42:05.122Z,101689.91
2023-04-19T09:45:12.609Z,101703.00
2023-04-19T09:47:29.845Z,101677.44
2023-04-19T09:50:22.630Z,101669.84
2023-04-19T09:52:53.039Z,101675.53
2023-04-19T09:55:27.593Z,101665.47
2023-04-19T09:57:55.739Z,101667.16
2023-04-19T10:00:23.617Z,101678.44
2023-04-19T10:02:58.000Z,101667.00
2023-04-19T10:05:26.410Z,101659.38
2023-04-19T10:07:59.529Z,101657.31
2023-04-19T10:13:25.975Z,101660.66
2023-04-19T10:16:01.814Z,101670.22
2023-04-19T10:18:35.940Z,101672.41
2023-04-19T10:21:08.328Z,101667.69
2023-04-19T10:23:38.711Z,101665.47
2023-04-19T10:26:07.262Z,101669.25
2023-04-19T10:28:37.193Z,101661.78
2023-04-19T10:31:05.768Z,101667.41
2023-04-19T10:33:37.866Z,101657.72
2023-04-19T10:36:11.164Z,101657.59
2023-04-19T10:38:49.457Z,101650.97
2023-04-19T10:41:23.737Z,101634.69
2023-04-19T10:43:57.656Z,101649.56
2023-04-19T10:46:25.866Z,101642.53
2023-04-19T10:49:09.545Z,101641.69
2023-04-19T10:51:42.368Z,101644.09
2023-04-19T10:54:33.180Z,101646.31
2023-04-19T10:57:10.182Z,101650.31
2023-04-19T10:59:42.975Z,101647.44
2023-04-19T11:02:22.448Z,101642.84
2023-04-19T11:04:49.626Z,101646.22
2023-04-19T11:07:24.002Z,101631.41
2023-04-19T11:09:52.467Z,101622.44
2023-04-19T11:12:24.065Z,101638.66
2023-04-19T11:14:59.678Z,101631.56
2023-04-19T11:17:32.504Z,101618.22
2023-04-19T11:20:12.008Z,101618.72
2023-04-19T11:22:47.214Z,101624.09
2023-04-19T11:25:22.760Z,101615.69
2023-04-19T11:27:54.001Z,101614.88
2023-04-19T11:30:31.236Z,101604.44
2023-04-19T11:32:58.818Z,101617.81
2023-04-19T11:35:29.042Z,101604.13
2023-04-19T11:38:08.004Z,101615.94
2023-04-19T11:40:37.391Z,101601.75
2023-04-19T11:43:05.525Z,101597.19
2023-04-19T11:45:39.804Z,101591.56
2023-04-19T11:48:17.242Z,101593.13
2023-04-19T11:50:49.408Z,101593.22
2023-04-19T11:53:25.447Z,101589.56
2023-04-19T11:56:08.240Z,101597.75
2023-04-19T11:58:50.114Z,101592.50
2023-04-19T12:01:20.705Z,101579.50
2023-04-19T12:03:51.275Z,101579.25
2023-04-19T12:06:30.706Z,101582.25
2023-04-19T12:09:47.949Z,101572.88
2023-04-19T12:12:31.305Z,101576.59
2023-04-19T12:14:58.578Z,101564.94
2023-04-19T12:17:35.360Z,101568.22
2023-04-19T12:20:08.436Z,101554.63
2023-04-19T12:22:36.154Z,101556.44
2023-04-19T12:25:03.267Z,101552.97
2023-04-19T12:27:30.414Z,101546.56
2023-04-19T12:29:57.828Z,101543.06
2023-04-19T12:32:25.024Z,101548.44
2023-04-19T12:35:04.386Z,101545.97
2023-04-19T12:37:31.691Z,101549.19
2023-04-19T12:39:58.819Z,101538.19
2023-04-19T12:42:28.272Z,101548.00
2023-04-19T12:47:43.535Z,101517.56
2023-04-19T12:50:16.166Z,101501.31
2023-04-19T12:52:58.838Z,101490.97
2023-04-19T12:55:35.378Z,101494.66
2023-04-19T12:58:15.038Z,101497.00
2023-04-19T13:00:43.547Z,101487.69
2023-04-19T13:03:14.033Z,101498.53
2023-04-19T13:05:41.655Z,101492.16
2023-04-19T13:08:08.840Z,101490.47
2023-04-19T13:10:36.178Z,101483.44
2023-04-19T13:13:05.676Z,101478.16
2023-04-19T13:15:32.788Z,101486.97
2023-04-19T13:17:59.922Z,101490.13
2023-04-19T13:20:27.136Z,101488.31
2023-04-19T13:22:54.194Z,101486.19
2023-04-19T13:25:27.731Z,101488.19
2023-04-19T13:27:54.938Z,101489.63
2023-04-19T13:30:22.010Z,101480.03
2023-04-19T13:32:49.082Z,101474.53
2023-04-19T13:35:16.681Z,101476.00
2023-04-19T13:37:47.565Z,101465.94
2023-04-19T13:40:22.040Z,101474.53
2023-04-19T13:42:49.177Z,101472.22
2023-04-19T13:45:16.276Z,101479.38
2023-04-19T13:47:43.863Z,101470.41
2023-04-19T13:50:11.186Z,101464.38
2023-04-19T13:52:38.272Z,101454.44
2023-04-19T13:55:05.809Z,101449.31
2023-04-19T13:57:32.859Z,101451.44
2023-04-19T13:59:59.937Z,101451.56
2023-04-19T14:02:28.616Z,101455.28
2023-04-19T14:04:58.805Z,101455.91
2023-04-19T14:07:25.881Z,101451.34
2023-04-19T14:09:53.008Z,101442.38
2023-04-19T14:12:20.558Z,101442.38
2023-04-19T14:14:47.991Z,101431.25
2023-04-19T14:17:15.041Z,101437.50
2023-04-19T14:19:42.235Z,101432.09
2023-04-19T14:22:09.505Z,101431.53
2023-04-19T14:24:36.567Z,101433.28
2023-04-19T14:27:10.812Z,101430.88
2023-04-19T14:29:39.778Z,101410.66
2023-04-19T14:32:23.627Z,101416.34
2023-04-19T14:34:53.924Z,101423.22
2023-04-19T14:37:24.183Z,101415.19
2023-04-19T14:39:51.733Z,101429.66
2023-04-19T14:42:22.316Z,101424.47
2023-04-19T14:44:54.047Z,101429.72
2023-04-19T14:47:21.907Z,101438.56
2023-04-19T14:49:49.077Z,101437.13
2023-04-19T14:52:19.599Z,101427.88
2023-04-19T14:54:46.858Z,101446.28
2023-04-19T14:57:14.824Z,101449.72
2023-04-19T14:59:44.548Z,101462.44
2023-04-19T15:02:13.622Z,101463.78
2023-04-19T15:04:42.005Z,101466.59
2023-04-19T15:07:09.474Z,101468.19
2023-04-19T15:09:36.634Z,101487.63
2023-04-19T15:12:03.900Z,101501.53
2023-04-19T15:14:30.937Z,101492.03
2023-04-19T15:16:58.024Z,101496.72
2023-04-19T15:19:25.188Z,101496.38
2023-04-19T15:21:52.230Z,101500.94
2023-04-19T15:24:19.332Z,101492.63
2023-04-19T15:26:46.445Z,101482.84
2023-04-19T15:29:16.654Z,101485.03
2023-04-19T15:31:44.002Z,101490.59
2023-04-19T15:34:11.122Z,101487.84
2023-04-19T15:36:38.571Z,101484.34
2023-04-19T15:39:05.918Z,101484.88
2023-04-19T15:41:33.028Z,101479.38
2023-04-19T15:44:00.077Z,101470.16
2023-04-19T15:46:27.385Z,101463.16
2023-04-19T15:48:54.702Z,101461.22
2023-04-19T15:51:21.872Z,101460.47
2023-04-19T15:53:49.014Z,101455.56
2023-04-19T15:56:16.261Z,101451.34
2023-04-19T15:58:43.401Z,101444.41
2023-04-19T16:01:14.284Z,101440.22
2023-04-19T16:03:42.654Z,101436.91
2023-04-19T16:06:10.493Z,101436.91
2023-04-19T16:08:37.645Z,101436.38
2023-04-19T16:11:06.027Z,101435.25
2023-04-19T16:13:35.703Z,101427.31
2023-04-19T16:16:02.871Z,101414.44
2023-04-19T16:18:30.109Z,101413.34
2023-04-19T16:20:57.303Z,101412.19
2023-04-19T16:23:25.484Z,101413.34
2023-04-19T16:25:53.789Z,101412.38
2023-04-19T16:28:24.930Z,101400.81
2023-04-19T16:30:52.191Z,101414.97
2023-04-19T16:33:19.457Z,101400.19
2023-04-19T16:35:46.670Z,101401.75
2023-04-19T16:38:14.156Z,101400.28
2023-04-19T16:40:41.478Z,101399.53
2023-04-19T16:43:08.607Z,101397.44
2023-04-19T16:45:35.813Z,101394.06
2023-04-19T16:48:03.096Z,101394.13
2023-04-19T16:50:30.314Z,101394.56
2023-04-19T16:52:57.409Z,101397.78
2023-04-19T16:55:24.445Z,101394.16
2023-04-19T16:57:53.581Z,101389.63
2023-04-19T17:00:21.264Z,101401.59
2023-04-19T17:02:54.828Z,101397.75
2023-04-19T17:05:22.085Z,101401.38
2023-04-19T17:07:51.731Z,101400.47
2023-04-19T17:10:18.957Z,101400.03
2023-04-19T17:12:46.104Z,101402.72
2023-04-19T17:15:13.211Z,101396.44
2023-04-19T17:17:40.986Z,101397.22
2023-04-19T17:20:09.417Z,101399.44
2023-04-19T17:22:36.576Z,101394.22
2023-04-19T17:25:03.896Z,101394.38
2023-04-19T17:27:31.618Z,101391.06
2023-04-19T17:29:58.706Z,101394.94
2023-04-19T17:32:27.018Z,101397.47
2023-04-19T17:34:54.255Z,101396.41
2023-04-19T17:37:21.771Z,101399.50
2023-04-19T17:39:49.097Z,101405.84
2023-04-19T17:42:16.182Z,101406.16
2023-04-19T17:44:43.318Z,101396.34
2023-04-19T17:47:13.004Z,101399.31
2023-04-19T17:49:40.712Z,101407.22
2023-04-19T17:52:09.860Z,101403.09
2023-04-19T17:54:37.214Z,101400.28
2023-04-19T17:57:05.558Z,101406.03
2023-04-19T17:59:35.556Z,101410.38
2023-04-19T18:02:02.815Z,101409.41
2023-04-19T18:04:31.017Z,101409.00
2023-04-19T18:07:02.126Z,101403.72
2023-04-19T18:09:31.030Z,101406.72
2023-04-19T18:11:58.398Z,101414.69
2023-04-19T18:14:25.614Z,101417.78
2023-04-19T18:16:54.728Z,101425.09
2023-04-19T18:19:23.955Z,101431.16
2023-04-19T18:25:01.627Z,101422.50
2023-04-19T18:27:30.977Z,101420.25
2023-04-19T18:29:59.416Z,101419.59
2023-04-19T18:32:28.646Z,101419.19
2023-04-19T18:34:56.122Z,101430.84
2023-04-19T18:37:23.208Z,101426.69
2023-04-19T18:39:50.401Z,101428.31
2023-04-19T18:42:20.672Z,101423.59
2023-04-19T18:47:17.748Z,101433.13
2023-04-19T18:49:52.892Z,101430.97
2023-04-19T18:52:30.259Z,101443.59
2023-04-19T18:54:58.385Z,101440.56
2023-04-19T18:57:27.503Z,101441.53
2023-04-19T18:59:56.883Z,101439.22
2023-04-19T19:02:24.541Z,101440.38
2023-04-19T19:04:57.761Z,101436.00
2023-04-19T19:07:35.724Z,101443.91
2023-04-19T19:10:18.329Z,101442.84
2023-04-19T19:12:48.134Z,101446.84
2023-04-19T19:15:15.610Z,101434.59
2023-04-19T19:17:43.597Z,101442.13
2023-04-19T19:20:13.654Z,101447.50
2023-04-19T19:22:40.812Z,101441.00
2023-04-19T19:25:08.515Z,101454.41
2023-04-19T19:27:35.729Z,101452.41
2023-04-19T19:30:03.606Z,101456.19
2023-04-19T19:32:31.593Z,101453.50
2023-04-19T19:35:02.234Z,101451.19
2023-04-19T19:37:30.385Z,101445.78
2023-04-19T19:39:57.483Z,101443.59
2023-04-19T19:42:25.574Z,101445.84
2023-04-19T19:44:56.422Z,101454.88
2023-04-19T19:47:27.288Z,101453.63
2023-04-19T19:50:45.701Z,101460.47
2023-04-19T19:52:42.271Z,101464.97
2023-04-19T19:55:12.379Z,101453.31
2023-04-19T20:00:36.837Z,101465.69
2023-04-19T20:03:01.616Z,101468.13
2023-04-19T20:05:29.515Z,101472.91
2023-04-19T20:08:29.174Z,101462.59
2023-04-19T20:10:56.625Z,101476.00
2023-04-19T20:13:23.851Z,101476.88
2023-04-19T20:15:52.679Z,101473.88
2023-04-19T20:18:19.828Z,101478.31
2023-04-19T20:20:46.943Z,101467.25
2023-04-19T20:23:23.741Z,101469.72
2023-04-19T20:25:51.955Z,101466.91
2023-04-19T20:28:19.254Z,101465.72
2023-04-19T20:30:46.675Z,101472.47
2023-04-19T20:33:13.978Z,101467.75
2023-04-19T20:35:42.048Z,101470.63
2023-04-19T20:38:09.656Z,101466.47
2023-04-19T20:40:37.085Z,101464.44
2023-04-19T20:43:04.127Z,101461.59
2023-04-19T20:45:31.344Z,101469.44
2023-04-19T20:47:59.610Z,101468.19
2023-04-19T20:50:32.239Z,101470.03
2023-04-19T20:53:08.144Z,101470.94
2023-04-19T20:55:35.658Z,101468.09
2023-04-19T20:58:06.397Z,101459.16
2023-04-19T21:00:33.485Z,101458.53
2023-04-19T21:03:00.678Z,101460.91
2023-04-19T21:05:27.912Z,101456.69
2023-04-19T21:07:55.206Z,101460.84
2023-04-19T21:10:22.417Z,101461.84
2023-04-19T21:12:49.711Z,101462.81
2023-04-19T21:15:17.096Z,101461.06
2023-04-19T21:17:44.362Z,101469.06
2023-04-19T21:20:13.933Z,101469.66
2023-04-19T21:22:46.833Z,101476.19
2023-04-19T21:25:14.403Z,101476.78
2023-04-19T21:27:45.033Z,101477.06
2023-04-19T21:30:13.722Z,101481.06
2023-04-19T21:32:40.872Z,101478.50
2023-04-19T21:35:11.554Z,101476.31
2023-04-19T21:37:38.759Z,101478.16
2023-04-19T21:40:07.462Z,101464.56
2023-04-19T21:42:37.489Z,101478.69
2023-04-19T21:45:05.766Z,101480.28
2023-04-19T21:47:32.916Z,101470.38
2023-04-19T21:50:00.188Z,101466.06
2023-04-19T21:52:27.337Z,101469.47
2023-04-19T21:54:57.574Z,101477.03
2023-04-19T21:57:26.896Z,101477.75
2023-04-19T21:59:54.357Z,101474.44
2023-04-19T22:02:27.465Z,101478.66
2023-04-19T22:04:54.627Z,101478.66
2023-04-19T22:07:23.810Z,101470.47
2023-04-19T22:09:51.153Z,101471.97
2023-04-19T22:12:18.787Z,101469.66
2023-04-19T22:14:46.043Z,101481.06
2023-04-19T22:17:14.215Z,101475.00
2023-04-19T22:19:41.261Z,101468.19
2023-04-19T22:22:08.439Z,101469.25
2023-04-19T22:24:46.744Z,101459.88
2023-04-19T22:27:24.324Z,101462.94
2023-04-19T22:29:51.435Z,101455.75
2023-04-19T22:32:18.765Z,101469.25
2023-04-19T22:34:45.853Z,101466.75
2023-04-19T22:37:12.904Z,101469.59
2023-04-19T22:39:42.655Z,101474.56
2023-04-19T22:42:09.732Z,101474.97
2023-04-19T22:44:36.751Z,101470.72
2023-04-19T22:47:04.874Z,101470.63
2023-04-19T22:49:32.939Z,101464.88
2023-04-19T22:52:00.185Z,101460.28
2023-04-19T22:54:27.402Z,101461.66
2023-04-19T22:56:54.527Z,101466.03
2023-04-19T22:59:21.636Z,101462.22
2023-04-19T23:01:48.719Z,101465.28
2023-04-19T23:04:16.311Z,101463.63
2023-04-19T23:06:44.437Z,101464.22
2023-04-19T23:09:13.750Z,101463.38
2023-04-19T23:11:42.275Z,101455.16
2023-04-19T23:14:10.414Z,101446.38
2023-04-19T23:16:41.336Z,101438.38
2023-04-19T23:19:09.570Z,101451.53
2023-04-19T23:21:37.249Z,101453.69
2023-04-19T23:24:07.270Z,101447.50
2023-04-19T23:26:34.407Z,101442.41
2023-04-19T23:29:01.472Z,101443.41
2023-04-19T23:31:28.642Z,101445.09
2023-04-19T23:33:58.076Z,101445.81
2023-04-19T23:36:26.433Z,101446.22
2023-04-19T23:38:53.458Z,101450.09
2023-04-19T23:41:20.771Z,101447.47
2023-04-19T23:43:47.849Z,101437.63
2023-04-19T23:46:14.927Z,101435.59
2023-04-19T23:48:42.014Z,101441.41
2023-04-19T23:51:09.066Z,101434.19
2023-04-19T23:53:36.355Z,101436.44
2023-04-19T23:56:03.498Z,101428.72
2023-04-19T23:58:30.827Z,101431.00
